Time;durP1;ratioP1;P1;durP2;ratioP2;P2;SDS_P1;SDS_P2;PMS_P1;PMS_P2;Temp;Humidity;BMP_temperature;BMP_pressure;BME280_temperature;BME280_humidity;BME280_pressure;Samples;Min_cycle;Max_cycle;Signal;HPM_P1;HPM_P2
2023/05/23 00:02:18;;;;;;;3.47;3.17;;;19.90;58.90;;;;;;5039677;28;20241;-65
2023/05/23 00:04:44;;;;;;;4.30;3.70;;;20.00;58.90;;;;;;5040073;28;20732;-67
2023/05/23 00:07:10;;;;;;;6.77;3.63;;;20.00;58.90;;;;;;5039858;28;20238;-65
2023/05/23 00:09:35;;;;;;;5.20;3.47;;;20.00;59.10;;;;;;5030059;28;20202;-69
2023/05/23 00:12:01;;;;;;;4.77;4.00;;;20.00;59.00;;;;;;5027372;28;20218;-65
2023/05/23 00:14:30;;;;;;;4.10;3.80;;;19.90;58.90;;;;;;5035086;28;20202;-65
2023/05/23 00:16:55;;;;;;;4.53;3.57;;;19.80;59.10;;;;;;5030673;28;20229;-68
2023/05/23 00:19:21;;;;;;;4.90;4.07;;;19.70;59.30;;;;;;5032452;28;20237;-65
2023/05/23 00:21:47;;;;;;;6.13;3.80;;;19.70;59.80;;;;;;5039469;28;20193;-65
2023/05/23 00:24:13;;;;;;;5.07;4.57;;;19.70;59.50;;;;;;5032959;28;20212;-65
2023/05/23 00:26:39;;;;;;;4.23;3.83;;;19.70;59.50;;;;;;5036697;28;20201;-64
2023/05/23 00:29:05;;;;;;;4.33;3.57;;;19.60;59.70;;;;;;5038544;28;20197;-65
2023/05/23 00:31:30;;;;;;;3.93;3.53;;;19.50;59.80;;;;;;5038192;28;20195;-65
2023/05/23 00:33:56;;;;;;;5.30;4.20;;;19.50;59.80;;;;;;5034857;28;20206;-64
2023/05/23 00:36:22;;;;;;;5.07;4.33;;;19.50;60.00;;;;;;5035546;28;20217;-65
2023/05/23 00:38:48;;;;;;;6.87;3.90;;;19.50;60.20;;;;;;5039350;28;20199;-64
2023/05/23 00:41:14;;;;;;;4.33;3.93;;;19.50;60.20;;;;;;5038764;28;20218;-64
2023/05/23 00:43:39;;;;;;;6.20;4.20;;;19.40;60.70;;;;;;5039307;28;20689;-64
2023/05/23 00:46:05;;;;;;;5.10;4.00;;;19.50;60.40;;;;;;5038402;28;20206;-64
2023/05/23 00:48:31;;;;;;;8.40;4.17;;;19.40;60.70;;;;;;5036623;28;20317;-64
2023/05/23 00:50:57;;;;;;;4.80;4.00;;;19.40;60.80;;;;;;5039190;28;20519;-63
2023/05/23 00:53:23;;;;;;;3.70;3.40;;;19.40;61.00;;;;;;5038983;28;20206;-64
2023/05/23 00:55:49;;;;;;;4.47;4.07;;;19.40;60.90;;;;;;5035718;28;20281;-64
2023/05/23 00:58:16;;;;;;;4.53;3.60;;;19.20;61.20;;;;;;5037406;28;20287;-64
2023/05/23 01:00:43;;;;;;;5.53;3.80;;;19.10;61.40;;;;;;5036526;28;20212;-64
2023/05/23 01:03:16;;;;;;;4.80;3.93;;;19.10;62.00;;;;;;5038384;28;20287;-65
2023/05/23 01:05:45;;;;;;;5.00;3.80;;;19.20;61.70;;;;;;5038547;28;20211;-64
2023/05/23 01:08:10;;;;;;;5.80;4.83;;;19.30;61.80;;;;;;5036694;28;20613;-64
2023/05/23 01:10:36;;;;;;;4.63;3.60;;;19.20;62.20;;;;;;5034235;28;20346;-64
2023/05/23 01:13:33;;;;;;;4.77;4.17;;;19.20;61.80;;;;;;5038164;28;20695;-63
2023/05/23 01:16:17;;;;;;;4.53;3.80;;;19.20;62.20;;;;;;5033758;28;20204;-64
2023/05/23 01:18:57;;;;;;;3.87;3.13;;;19.20;62.00;;;;;;5037026;28;20562;-64
2023/05/23 01:21:24;;;;;;;4.53;3.93;;;19.20;63.00;;;;;;5038388;28;20205;-64
2023/05/23 01:24:18;;;;;;;5.43;4.13;;;19.20;62.40;;;;;;5036562;28;20307;-64
2023/05/23 01:27:00;;;;;;;6.23;4.17;;;19.10;63.40;;;;;;5037612;28;20255;-64
2023/05/23 01:29:31;;;;;;;6.47;3.73;;;19.20;62.60;;;;;;5038769;28;20201;-64
2023/05/23 01:31:58;;;;;;;7.40;3.97;;;19.10;62.30;;;;;;5036234;28;20215;-65
2023/05/23 01:34:24;;;;;;;4.47;4.07;;;19.10;63.40;;;;;;5038361;28;20290;-64
2023/05/23 01:36:54;;;;;;;4.30;3.90;;;19.10;62.90;;;;;;5038734;28;20255;-64
2023/05/23 01:39:20;;;;;;;11.67;4.53;;;19.20;63.90;;;;;;5038519;28;20226;-64
2023/05/23 01:41:46;;;;;;;4.10;3.70;;;19.10;63.40;;;;;;5036518;28;20691;-64
2023/05/23 01:44:11;;;;;;;5.53;3.47;;;19.10;63.90;;;;;;5033498;28;20293;-64
2023/05/23 01:46:38;;;;;;;3.43;3.13;;;19.10;64.50;;;;;;5037856;28;20222;-64
2023/05/23 01:49:05;;;;;;;5.87;4.37;;;19.10;64.30;;;;;;5037112;28;20270;-63
2023/05/23 01:51:32;;;;;;;5.03;4.57;;;19.10;64.10;;;;;;5037861;28;20268;-65
2023/05/23 01:53:59;;;;;;;4.33;3.83;;;19.00;64.20;;;;;;5038118;28;20284;-64
2023/05/23 01:56:26;;;;;;;4.70;4.10;;;19.10;65.90;;;;;;5023916;28;20195;-64
2023/05/23 01:58:53;;;;;;;4.70;3.90;;;19.10;65.40;;;;;;5038288;28;20212;-64
2023/05/23 02:01:19;;;;;;;4.10;3.70;;;19.10;65.70;;;;;;5037795;28;20946;-65
2023/05/23 02:03:45;;;;;;;8.80;4.33;;;19.00;64.90;;;;;;5037888;28;20571;-64
2023/05/23 02:06:10;;;;;;;6.23;4.10;;;19.00;64.90;;;;;;5037756;28;20209;-64
2023/05/23 02:08:36;;;;;;;5.90;4.10;;;19.10;65.10;;;;;;5030636;28;20195;-63
2023/05/23 02:11:02;;;;;;;4.30;3.67;;;19.10;64.90;;;;;;5037063;28;20198;-64
2023/05/23 02:13:27;;;;;;;5.00;4.23;;;19.10;65.50;;;;;;5037806;28;20301;-64
2023/05/23 02:15:53;;;;;;;6.07;3.80;;;19.10;65.80;;;;;;5037275;28;20297;-66
2023/05/23 02:18:19;;;;;;;6.80;4.33;;;19.10;66.40;;;;;;5037005;28;20218;-65
2023/05/23 02:20:45;;;;;;;4.47;3.30;;;19.10;65.90;;;;;;5036291;28;20222;-64
2023/05/23 02:23:10;;;;;;;6.07;4.03;;;19.00;66.20;;;;;;5037503;28;20213;-66
2023/05/23 02:25:36;;;;;;;6.60;4.33;;;19.00;66.30;;;;;;5037576;28;20193;-64
2023/05/23 02:28:01;;;;;;;4.30;3.90;;;18.90;65.70;;;;;;5037168;28;20740;-64
2023/05/23 02:30:27;;;;;;;4.70;4.10;;;18.90;66.30;;;;;;5029973;28;20733;-64
2023/05/23 02:32:52;;;;;;;6.03;3.97;;;18.90;67.00;;;;;;5029940;28;20614;-64
2023/05/23 02:35:18;;;;;;;4.57;4.10;;;18.90;67.20;;;;;;5028920;28;20213;-65
2023/05/23 02:37:43;;;;;;;7.57;4.03;;;18.90;66.50;;;;;;5036597;28;20575;-64
2023/05/23 02:40:09;;;;;;;5.50;4.23;;;18.90;66.30;;;;;;5037078;28;20224;-64
2023/05/23 02:42:35;;;;;;;6.17;3.97;;;18.80;66.90;;;;;;5036844;28;20208;-64
2023/05/23 02:45:00;;;;;;;5.87;4.37;;;18.80;67.40;;;;;;5034607;28;20198;-64
2023/05/23 02:47:26;;;;;;;8.13;4.53;;;18.80;68.40;;;;;;5035493;28;20285;-64
2023/05/23 02:49:51;;;;;;;6.50;4.67;;;18.80;67.70;;;;;;5036901;28;20213;-64
2023/05/23 02:52:17;;;;;;;7.93;5.03;;;18.80;67.10;;;;;;5035218;28;20614;-64
2023/05/23 02:54:42;;;;;;;6.90;4.87;;;18.80;67.20;;;;;;5036814;28;20207;-64
2023/05/23 02:57:08;;;;;;;5.37;4.37;;;18.80;66.90;;;;;;5036163;28;20636;-65
2023/05/23 02:59:33;;;;;;;5.03;4.40;;;18.80;67.30;;;;;;5034195;28;20236;-64
2023/05/23 03:01:59;;;;;;;6.27;4.40;;;18.80;67.30;;;;;;5036119;28;20556;-65
2023/05/23 03:04:24;;;;;;;7.43;5.17;;;18.90;67.80;;;;;;5036426;28;20212;-64
2023/05/23 03:06:53;;;;;;;5.80;5.13;;;19.00;67.90;;;;;;5037141;28;20280;-65
2023/05/23 03:09:19;;;;;;;4.53;4.13;;;19.00;67.60;;;;;;5034919;28;20228;-64
2023/05/23 03:11:45;;;;;;;6.93;5.07;;;19.00;68.30;;;;;;5022336;28;20216;-64
2023/05/23 03:14:11;;;;;;;7.30;5.33;;;19.00;67.70;;;;;;5036290;28;20193;-64
2023/05/23 03:16:36;;;;;;;10.20;4.97;;;18.80;68.40;;;;;;5036445;28;20197;-65
2023/05/23 03:19:03;;;;;;;6.27;4.60;;;18.90;68.50;;;;;;5036388;28;20862;-64
2023/05/23 03:21:30;;;;;;;6.07;4.60;;;18.90;67.80;;;;;;5036227;28;20566;-67
2023/05/23 03:23:56;;;;;;;7.97;4.37;;;18.80;67.70;;;;;;5036698;28;20202;-64
2023/05/23 03:26:22;;;;;;;5.57;4.73;;;18.70;68.40;;;;;;5036342;28;20204;-64
2023/05/23 03:28:48;;;;;;;5.23;4.73;;;18.60;69.80;;;;;;5036812;28;20213;-64
2023/05/23 03:31:14;;;;;;;10.93;4.93;;;18.60;69.20;;;;;;5036092;28;20271;-64
2023/05/23 03:33:40;;;;;;;6.70;4.73;;;18.60;69.70;;;;;;5036585;28;20221;-64
2023/05/23 03:36:05;;;;;;;8.63;4.83;;;18.60;69.60;;;;;;5034461;28;20264;-64
2023/05/23 03:38:31;;;;;;;8.27;5.10;;;18.60;70.50;;;;;;5026394;28;20300;-65
2023/05/23 03:40:56;;;;;;;5.50;5.00;;;18.60;70.90;;;;;;5027917;28;20802;-64
2023/05/23 03:43:22;;;;;;;7.50;5.27;;;18.40;71.60;;;;;;5026916;28;20223;-64
2023/05/23 03:45:47;;;;;;;7.60;4.83;;;18.30;72.90;;;;;;5023540;28;20200;-64
2023/05/23 03:48:13;;;;;;;5.33;4.93;;;18.30;73.30;;;;;;5025967;28;20232;-64
2023/05/23 03:50:39;;;;;;;5.77;4.63;;;18.40;73.60;;;;;;5030008;28;20567;-64
2023/05/23 03:53:04;;;;;;;7.17;4.87;;;18.40;73.50;;;;;;5031256;28;20258;-64
2023/05/23 03:55:31;;;;;;;9.17;5.60;;;18.40;73.70;;;;;;5035375;28;20228;-64
2023/05/23 03:57:56;;;;;;;7.37;4.93;;;18.20;74.20;;;;;;5035891;28;20218;-64
2023/05/23 04:00:22;;;;;;;5.27;4.77;;;18.20;74.20;;;;;;5035835;28;20215;-64
2023/05/23 04:02:48;;;;;;;9.07;5.57;;;18.10;74.20;;;;;;5035877;28;20312;-64
2023/05/23 04:05:15;;;;;;;6.83;4.57;;;18.10;74.40;;;;;;5034480;28;20245;-65
2023/05/23 04:07:40;;;;;;;10.43;5.00;;;18.30;73.80;;;;;;5034903;28;20673;-64
2023/05/23 04:10:07;;;;;;;5.63;5.10;;;18.30;73.40;;;;;;5037461;28;20216;-64
2023/05/23 04:12:33;;;;;;;5.57;4.80;;;18.20;73.60;;;;;;5039889;28;20650;-64
2023/05/23 04:14:58;;;;;;;5.87;4.43;;;18.20;74.10;;;;;;5039666;28;20201;-64
2023/05/23 04:17:24;;;;;;;6.23;4.77;;;18.20;74.60;;;;;;5038839;28;20272;-64
2023/05/23 04:19:50;;;;;;;5.20;4.70;;;18.10;74.80;;;;;;5029722;28;20300;-68
2023/05/23 04:22:16;;;;;;;7.03;4.70;;;18.20;75.00;;;;;;5039262;28;20851;-64
2023/05/23 04:24:42;;;;;;;4.70;4.30;;;18.20;75.10;;;;;;5039477;28;20205;-64
2023/05/23 04:27:07;;;;;;;7.30;5.13;;;18.20;76.40;;;;;;5035717;28;20224;-64
2023/05/23 04:29:34;;;;;;;7.77;4.83;;;18.10;76.50;;;;;;5029844;28;20195;-64
2023/05/23 04:32:00;;;;;;;7.03;4.93;;;18.10;76.60;;;;;;5028830;28;20211;-64
2023/05/23 04:34:26;;;;;;;6.97;4.83;;;18.10;75.80;;;;;;5029215;28;20321;-65
2023/05/23 04:36:52;;;;;;;7.13;4.70;;;18.00;76.00;;;;;;5029082;28;20319;-64
2023/05/23 04:39:18;;;;;;;6.17;4.60;;;18.00;76.60;;;;;;5028646;28;20198;-64
2023/05/23 04:41:44;;;;;;;6.77;5.20;;;17.90;77.90;;;;;;5028515;28;20328;-64
2023/05/23 04:44:10;;;;;;;10.57;5.57;;;17.90;77.70;;;;;;5027117;28;20301;-65
2023/05/23 04:46:40;;;;;;;7.80;5.63;;;17.90;77.80;;;;;;5029638;28;20826;-64
2023/05/23 04:49:06;;;;;;;4.90;4.40;;;17.90;77.70;;;;;;5029262;28;20259;-64
2023/05/23 04:51:32;;;;;;;6.30;4.30;;;18.00;78.70;;;;;;5030009;28;20296;-64
2023/05/23 04:53:58;;;;;;;6.00;5.40;;;17.80;80.20;;;;;;5036931;28;20194;-64
2023/05/23 04:56:27;;;;;;;8.33;5.13;;;17.80;81.40;;;;;;5036688;28;20194;-64
2023/05/23 04:58:52;;;;;;;8.47;5.27;;;17.90;81.60;;;;;;5038806;28;20600;-64
2023/05/23 05:01:18;;;;;;;9.93;5.07;;;17.90;81.30;;;;;;5033480;28;20220;-64
2023/05/23 05:03:43;;;;;;;7.83;4.87;;;18.00;81.20;;;;;;5037373;28;20197;-64
2023/05/23 05:06:09;;;;;;;6.60;5.00;;;17.80;82.20;;;;;;5033844;28;20292;-64
2023/05/23 05:08:35;;;;;;;7.20;4.83;;;17.90;81.90;;;;;;5036774;28;20663;-65
2023/05/23 05:11:00;;;;;;;6.73;5.40;;;17.90;82.00;;;;;;5037641;28;20295;-64
2023/05/23 05:13:26;;;;;;;9.63;5.00;;;17.90;82.00;;;;;;5025028;28;20295;-64
2023/05/23 05:15:51;;;;;;;8.60;4.80;;;17.90;81.90;;;;;;5028913;28;20204;-65
2023/05/23 05:18:17;;;;;;;7.13;4.77;;;17.80;81.70;;;;;;5028972;28;20229;-64
2023/05/23 05:20:42;;;;;;;7.10;5.63;;;17.80;82.50;;;;;;5028019;28;20212;-64
2023/05/23 05:23:08;;;;;;;5.97;4.57;;;17.80;82.80;;;;;;5028566;28;20292;-64
2023/05/23 05:25:35;;;;;;;5.73;4.90;;;17.80;82.20;;;;;;5026718;28;20638;-65
2023/05/23 05:28:04;;;;;;;5.33;4.60;;;17.80;81.90;;;;;;5034959;28;20204;-64
2023/05/23 05:30:32;;;;;;;7.50;5.07;;;17.70;82.60;;;;;;5038624;28;20641;-64
2023/05/23 05:32:58;;;;;;;6.93;5.20;;;17.70;82.50;;;;;;5038273;28;20235;-64
2023/05/23 05:35:23;;;;;;;10.00;5.03;;;17.70;82.00;;;;;;5037484;28;20319;-64
2023/05/23 05:37:49;;;;;;;6.87;5.30;;;17.60;83.10;;;;;;5036334;28;20230;-64
2023/05/23 05:40:14;;;;;;;11.37;5.70;;;17.60;83.60;;;;;;5034325;28;20218;-63
2023/05/23 05:42:40;;;;;;;5.70;5.10;;;17.60;84.50;;;;;;5037945;28;20211;-64
2023/05/23 05:45:06;;;;;;;6.80;5.13;;;17.50;86.00;;;;;;5038129;28;20197;-64
2023/05/23 05:47:31;;;;;;;9.50;5.50;;;17.50;86.00;;;;;;5037687;28;20200;-64
2023/05/23 05:49:57;;;;;;;11.17;5.90;;;17.60;86.70;;;;;;5031283;28;20299;-64
2023/05/23 05:52:22;;;;;;;11.80;5.10;;;17.50;87.40;;;;;;5032592;28;20218;-64
2023/05/23 05:54:48;;;;;;;7.67;5.53;;;17.40;87.30;;;;;;5037816;28;20224;-65
2023/05/23 05:57:13;;;;;;;5.17;4.67;;;17.40;88.10;;;;;;5033503;28;20741;-65
2023/05/23 05:59:39;;;;;;;8.83;5.67;;;17.50;89.10;;;;;;5037649;28;20217;-64
2023/05/23 06:02:04;;;;;;;6.57;5.03;;;17.50;89.30;;;;;;5037459;28;20277;-65
2023/05/23 06:04:30;;;;;;;6.53;4.27;;;17.50;89.60;;;;;;5036210;28;20187;-65
2023/05/23 06:06:55;;;;;;;11.43;7.63;;;17.40;90.30;;;;;;5028008;28;20581;-65
2023/05/23 06:09:21;;;;;;;6.73;4.53;;;17.40;90.70;;;;;;5035308;28;20212;-65
2023/05/23 06:11:46;;;;;;;7.30;4.83;;;17.30;91.10;;;;;;5033402;28;20222;-67
2023/05/23 06:14:12;;;;;;;10.57;5.03;;;17.20;91.80;;;;;;5037172;28;20238;-67
2023/05/23 06:16:37;;;;;;;5.63;5.13;;;17.30;92.00;;;;;;5037348;28;20236;-65
2023/05/23 06:19:03;;;;;;;7.97;5.43;;;17.50;91.90;;;;;;5037388;28;20228;-64
2023/05/23 06:21:28;;;;;;;6.50;5.43;;;17.60;91.60;;;;;;5030676;28;20216;-65
2023/05/23 06:23:54;;;;;;;6.07;5.43;;;17.70;91.20;;;;;;5023681;28;20256;-65
2023/05/23 06:26:19;;;;;;;7.90;5.13;;;17.70;91.30;;;;;;5020794;28;20495;-65
2023/05/23 06:28:45;;;;;;;11.57;6.03;;;17.70;90.90;;;;;;5022036;28;20453;-65
2023/05/23 06:31:11;;;;;;;8.93;5.60;;;17.70;91.10;;;;;;5021961;28;20213;-65
2023/05/23 06:33:36;;;;;;;6.07;4.70;;;17.70;91.20;;;;;;5019363;28;20236;-66
2023/05/23 06:36:02;;;;;;;7.37;5.80;;;17.70;91.40;;;;;;5023004;28;20204;-65
2023/05/23 06:38:30;;;;;;;7.20;5.17;;;17.80;91.20;;;;;;5021969;28;20225;-64
2023/05/23 06:40:55;;;;;;;7.57;5.10;;;18.00;91.30;;;;;;5021917;28;20232;-64
2023/05/23 06:43:21;;;;;;;9.73;5.27;;;17.90;90.80;;;;;;5022241;28;20201;-64
2023/05/23 06:45:46;;;;;;;8.63;5.93;;;17.90;91.10;;;;;;5022078;28;20280;-64
2023/05/23 06:48:12;;;;;;;11.23;5.80;;;18.10;90.70;;;;;;5020565;28;20775;-66
2023/05/23 06:50:38;;;;;;;7.30;5.47;;;18.00;90.30;;;;;;5020143;28;20212;-64
2023/05/23 06:53:03;;;;;;;7.00;4.87;;;18.00;90.80;;;;;;5020035;28;20688;-64
2023/05/23 06:55:29;;;;;;;10.87;5.57;;;18.00;90.40;;;;;;5019534;28;20210;-66
2023/05/23 06:57:54;;;;;;;8.53;5.50;;;18.10;90.90;;;;;;5030452;28;20216;-73
2023/05/23 07:00:20;;;;;;;8.57;5.73;;;18.10;92.00;;;;;;5029148;28;20209;-78
2023/05/23 07:02:49;;;;;;;6.20;5.37;;;18.20;92.40;;;;;;5035177;28;20848;-75
2023/05/23 07:05:16;;;;;;;9.13;5.93;;;18.10;92.20;;;;;;5024359;28;20682;-76
2023/05/23 07:07:41;;;;;;;9.70;6.40;;;18.20;93.40;;;;;;5024952;28;20396;-73
2023/05/23 07:10:08;;;;;;;6.90;6.07;;;18.30;94.60;;;;;;5036571;28;20197;-73
2023/05/23 07:12:33;;;;;;;7.30;5.67;;;18.30;94.10;;;;;;5034186;28;20206;-73
2023/05/23 07:14:58;;;;;;;7.97;6.23;;;18.10;95.30;;;;;;5036136;28;20633;-74
2023/05/23 07:17:24;;;;;;;9.87;6.50;;;18.30;95.70;;;;;;5031220;28;20238;-73
2023/05/23 07:19:50;;;;;;;7.00;6.30;;;18.30;93.50;;;;;;5035807;28;20209;-72
2023/05/23 07:22:15;;;;;;;10.43;6.13;;;18.40;93.50;;;;;;5029366;28;20205;-75
2023/05/23 07:24:41;;;;;;;10.80;5.73;;;18.40;93.10;;;;;;5028315;28;20193;-77
2023/05/23 07:27:06;;;;;;;8.33;6.10;;;18.40;92.80;;;;;;5029469;28;20204;-76
2023/05/23 07:29:35;;;;;;;7.27;5.40;;;18.40;92.80;;;;;;5036153;28;20283;-77
2023/05/23 07:32:04;;;;;;;6.07;5.13;;;18.40;93.30;;;;;;5035883;28;20207;-76
2023/05/23 07:34:30;;;;;;;9.73;5.00;;;18.40;93.10;;;;;;5033701;28;20207;-74
2023/05/23 07:36:55;;;;;;;11.03;6.27;;;18.30;91.90;;;;;;5035349;28;20278;-75
2023/05/23 07:39:23;;;;;;;8.60;6.13;;;18.40;91.50;;;;;;5034515;28;20209;-74
2023/05/23 07:41:49;;;;;;;11.53;5.93;;;18.40;91.50;;;;;;5015104;28;20208;-76
2023/05/23 07:44:15;;;;;;;6.57;5.20;;;18.40;91.20;;;;;;5017293;28;20205;-75
2023/05/23 07:46:40;;;;;;;6.50;5.30;;;18.50;91.30;;;;;;5019752;28;20202;-74
2023/05/23 07:49:06;;;;;;;8.13;5.17;;;18.50;91.40;;;;;;5021112;28;20653;-74
2023/05/23 07:51:32;;;;;;;6.87;5.33;;;18.50;91.00;;;;;;5021464;28;20270;-75
2023/05/23 07:53:57;;;;;;;8.17;5.03;;;18.80;90.90;;;;;;5017977;28;20205;-72
2023/05/23 07:56:23;;;;;;;5.63;4.93;;;18.80;90.50;;;;;;5029020;28;20691;-76
2023/05/23 07:58:48;;;;;;;5.87;5.00;;;18.70;90.60;;;;;;5024257;28;20208;-73
2023/05/23 08:01:13;;;;;;;8.23;5.40;;;18.70;90.70;;;;;;5013527;28;20214;-70
2023/05/23 08:03:41;;;;;;;5.87;5.07;;;18.70;90.90;;;;;;5025189;28;20215;-71
2023/05/23 08:06:07;;;;;;;8.13;5.30;;;18.80;90.50;;;;;;5025423;28;20207;-71
2023/05/23 08:08:33;;;;;;;6.23;4.83;;;18.90;90.80;;;;;;5024338;28;20210;-74
2023/05/23 08:10:58;;;;;;;6.50;5.90;;;19.00;91.20;;;;;;5029125;28;20201;-73
2023/05/23 08:13:24;;;;;;;5.30;4.80;;;19.10;91.30;;;;;;5024204;28;20708;-74
2023/05/23 08:15:50;;;;;;;6.60;5.13;;;19.10;91.10;;;;;;5021875;28;20193;-72
2023/05/23 08:18:15;;;;;;;11.73;6.80;;;19.20;91.30;;;;;;5021896;28;20210;-72
2023/05/23 08:20:41;;;;;;;10.80;5.53;;;19.20;91.10;;;;;;5021586;28;20270;-73
2023/05/23 08:23:06;;;;;;;5.50;5.00;;;19.20;91.60;;;;;;5019509;28;20202;-71
2023/05/23 08:25:32;;;;;;;5.87;4.93;;;19.20;91.50;;;;;;5022051;28;20259;-73
2023/05/23 08:27:58;;;;;;;6.73;5.47;;;19.20;91.90;;;;;;5024416;28;20778;-74
2023/05/23 08:30:24;;;;;;;6.40;5.53;;;19.40;91.90;;;;;;5026055;28;20221;-74
2023/05/23 08:32:56;;;;;;;6.23;5.20;;;19.40;92.00;;;;;;5026021;28;20571;-74
2023/05/23 08:35:22;;;;;;;7.53;6.17;;;19.30;92.20;;;;;;5021421;28;20208;-77
2023/05/23 08:37:49;;;;;;;5.70;5.20;;;19.30;92.60;;;;;;5021462;28;20229;-73
2023/05/23 08:40:21;;;;;;;6.30;5.60;;;19.40;93.10;;;;;;5018978;28;20576;-71
2023/05/23 08:42:48;;;;;;;11.77;6.93;;;19.60;92.60;;;;;;5017328;28;20665;-72
2023/05/23 08:45:14;;;;;;;6.90;6.20;;;19.90;92.80;;;;;;5020070;28;20691;-74
2023/05/23 08:47:43;;;;;;;6.83;6.13;;;20.00;92.70;;;;;;5018591;28;20673;-74
2023/05/23 08:50:14;;;;;;;6.37;5.77;;;19.90;93.20;;;;;;5020061;28;20206;-71
2023/05/23 08:52:46;;;;;;;6.10;5.50;;;19.90;93.50;;;;;;5021547;28;20611;-72
2023/05/23 08:55:11;;;;;;;6.77;5.93;;;20.00;94.00;;;;;;5021396;28;20214;-75
2023/05/23 08:57:38;;;;;;;6.73;6.13;;;20.00;94.60;;;;;;5032223;28;20213;-75
2023/05/23 09:00:09;;;;;;;12.53;6.30;;;20.00;94.50;;;;;;5026339;28;20216;-74
2023/05/23 09:02:36;;;;;;;8.30;7.03;;;20.00;94.70;;;;;;5016892;28;20258;-73
2023/05/23 09:05:02;;;;;;;8.63;5.97;;;19.90;95.30;;;;;;5026941;28;20229;-73
2023/05/23 09:07:28;;;;;;;12.83;6.40;;;20.10;96.00;;;;;;5018946;28;20246;-74
2023/05/23 09:09:54;;;;;;;7.03;6.33;;;20.30;96.00;;;;;;5018261;28;20211;-76
2023/05/23 09:12:22;;;;;;;7.30;6.60;;;20.20;96.10;;;;;;5020177;28;20206;-72
2023/05/23 09:14:48;;;;;;;6.27;5.67;;;20.10;96.90;;;;;;5018517;28;20261;-79
2023/05/23 09:17:19;;;;;;;8.00;6.47;;;20.10;97.20;;;;;;5019490;28;20208;-73
2023/05/23 09:19:48;;;;;;;7.37;5.67;;;20.20;97.50;;;;;;5016852;28;20216;-73
2023/05/23 09:22:14;;;;;;;6.40;5.80;;;20.20;97.30;;;;;;5019846;28;20873;-72
2023/05/23 09:24:42;;;;;;;8.63;6.23;;;20.30;97.50;;;;;;5018470;28;20199;-73
2023/05/23 09:27:07;;;;;;;9.10;6.70;;;20.50;96.70;;;;;;5015385;28;20211;-73
2023/05/23 09:29:39;;;;;;;7.00;6.33;;;20.60;96.50;;;;;;5020417;28;20235;-72
2023/05/23 09:32:12;;;;;;;6.63;6.00;;;20.60;97.30;;;;;;5018138;28;20544;-72
2023/05/23 09:34:56;;;;;;;8.70;6.20;;;20.50;97.00;;;;;;5018081;28;20328;-72
2023/05/23 09:37:24;;;;;;;8.57;7.37;;;20.50;97.10;;;;;;5020110;28;20233;-74
2023/05/23 09:39:50;;;;;;;7.17;6.47;;;20.60;97.10;;;;;;5019744;28;20641;-73
2023/05/23 09:42:21;;;;;;;7.63;6.60;;;20.60;97.50;;;;;;5020906;28;20192;-74
2023/05/23 09:44:47;;;;;;;9.30;7.33;;;20.40;97.80;;;;;;5024802;28;20210;-72
2023/05/23 09:47:15;;;;;;;7.10;6.40;;;20.40;98.10;;;;;;5019020;28;20212;-73
2023/05/23 09:49:42;;;;;;;6.33;5.73;;;20.60;99.30;;;;;;5017603;28;20293;-73
2023/05/23 09:52:08;;;;;;;6.90;6.10;;;20.70;98.50;;;;;;5016239;28;20219;-73
2023/05/23 09:54:33;;;;;;;9.87;7.40;;;20.60;98.50;;;;;;5023038;28;20195;-73
2023/05/23 09:57:01;;;;;;;6.47;5.83;;;20.60;97.80;;;;;;5016687;28;20200;-72
2023/05/23 09:59:34;;;;;;;7.03;6.43;;;20.60;97.90;;;;;;5018152;28;20634;-73
2023/05/23 10:02:02;;;;;;;8.20;7.40;;;20.60;98.10;;;;;;5014731;28;20204;-75
2023/05/23 10:04:30;;;;;;;8.67;6.83;;;20.70;98.30;;;;;;5014725;28;20225;-74
2023/05/23 10:07:00;;;;;;;7.40;6.43;;;20.70;98.60;;;;;;5019696;28;20243;-73
2023/05/23 10:09:35;;;;;;;8.53;7.67;;;20.70;98.70;;;;;;5017987;28;20672;-72
2023/05/23 10:12:30;;;;;;;7.77;6.87;;;20.70;98.80;;;;;;5017906;28;20309;-71
2023/05/23 10:15:00;;;;;;;8.73;7.80;;;20.80;99.20;;;;;;5017003;28;20194;-73
2023/05/23 10:17:50;;;;;;;8.13;7.33;;;20.80;99.10;;;;;;5016386;28;20197;-72
2023/05/23 10:20:16;;;;;;;8.50;7.57;;;20.90;99.20;;;;;;5018957;28;20226;-72
2023/05/23 10:22:42;;;;;;;9.07;7.97;;;20.70;99.90;;;;;;5021323;28;20219;-73
2023/05/23 10:25:09;;;;;;;10.10;8.67;;;20.70;99.90;;;;;;5010622;28;20576;-75
2023/05/23 10:27:38;;;;;;;9.60;8.70;;;20.90;99.90;;;;;;5014990;28;20205;-75
2023/05/23 10:30:08;;;;;;;9.50;8.63;;;21.00;99.90;;;;;;5017044;28;20657;-78
2023/05/23 10:32:35;;;;;;;9.13;8.33;;;20.90;99.90;;;;;;5027995;28;20212;-79
2023/05/23 10:35:19;;;;;;;11.30;10.20;;;20.90;99.90;;;;;;5018834;28;20688;-72
2023/05/23 10:38:26;;;;;;;11.87;10.83;;;20.80;99.90;;;;;;5017684;28;20262;-73
2023/05/23 10:41:20;;;;;;;12.80;11.60;;;20.60;99.90;;;;;;5019381;28;20315;-73
2023/05/23 10:44:17;;;;;;;26.83;14.83;;;20.50;99.90;;;;;;5012091;28;20206;-75
2023/05/23 10:46:53;;;;;;;13.23;12.03;;;20.20;99.90;;;;;;5023133;28;20204;-72
2023/05/23 10:49:20;;;;;;;13.57;12.27;;;19.30;99.90;;;;;;5024780;28;20207;-72
2023/05/23 10:51:53;;;;;;;15.43;13.87;;;18.90;99.90;;;;;;5018184;28;20199;-70
2023/05/23 10:54:21;;;;;;;16.43;14.73;;;18.40;99.90;;;;;;5010577;28;20202;-74
2023/05/23 10:57:01;;;;;;;17.50;15.57;;;18.10;99.90;;;;;;5011222;28;20350;-74
2023/05/23 10:59:27;;;;;;;19.63;17.53;;;18.20;99.90;;;;;;5020274;28;20302;-74
2023/05/23 11:01:54;;;;;;;20.10;17.73;;;17.90;99.90;;;;;;5016207;28;20713;-73
2023/05/23 11:04:27;;;;;;;21.87;19.43;;;17.80;99.90;;;;;;5012482;28;20196;-73
2023/05/23 11:06:57;;;;;;;24.50;21.70;;;17.70;99.90;;;;;;5012464;28;20200;-72
2023/05/23 11:09:23;;;;;;;20.93;18.93;;;17.70;99.90;;;;;;5014684;28;20282;-73
2023/05/23 11:11:52;;;;;;;22.17;19.53;;;17.70;99.90;;;;;;5015767;28;20286;-73
2023/05/23 11:14:19;;;;;;;22.73;19.07;;;17.60;99.90;;;;;;5016299;28;20561;-74
2023/05/23 11:16:47;;;;;;;20.70;18.70;;;17.70;99.90;;;;;;5015610;28;20199;-74
2023/05/23 11:19:19;;;;;;;22.50;19.60;;;17.70;99.90;;;;;;5017976;28;20206;-73
2023/05/23 11:21:51;;;;;;;26.53;21.13;;;17.80;99.90;;;;;;5018772;28;20200;-73
2023/05/23 11:24:16;;;;;;;23.17;20.80;;;17.80;99.90;;;;;;5022593;28;20212;-74
2023/05/23 11:26:53;;;;;;;23.67;21.17;;;17.80;99.90;;;;;;5022788;28;20203;-73
2023/05/23 11:29:19;;;;;;;25.30;21.43;;;17.80;99.90;;;;;;5018358;28;20199;-74
2023/05/23 11:31:45;;;;;;;23.30;20.90;;;17.90;99.90;;;;;;5020391;28;20200;-74
2023/05/23 11:34:11;;;;;;;23.43;21.03;;;17.90;99.90;;;;;;5019426;28;20227;-76
2023/05/23 11:36:36;;;;;;;22.10;19.70;;;17.80;99.90;;;;;;5017181;28;20294;-74
2023/05/23 11:39:03;;;;;;;25.60;19.20;;;17.90;99.90;;;;;;5019519;28;20251;-73
2023/05/23 11:41:30;;;;;;;24.90;20.37;;;18.00;99.90;;;;;;5014537;28;20207;-74
2023/05/23 11:43:55;;;;;;;22.03;18.50;;;18.10;99.90;;;;;;5021116;28;20238;-75
2023/05/23 11:46:21;;;;;;;23.53;21.23;;;18.20;99.90;;;;;;5023150;28;20833;-75
2023/05/23 11:48:47;;;;;;;20.97;18.80;;;18.40;99.90;;;;;;5026508;28;20572;-74
2023/05/23 11:51:14;;;;;;;21.87;19.57;;;18.60;99.90;;;;;;5024876;28;20205;-74
2023/05/23 11:53:40;;;;;;;22.37;18.43;;;18.60;99.90;;;;;;5019727;28;20375;-75
2023/05/23 11:56:06;;;;;;;22.33;19.47;;;18.50;99.90;;;;;;5021352;28;20209;-80
2023/05/23 11:58:36;;;;;;;23.20;18.80;;;18.50;99.90;;;;;;5029508;28;20496;-73
2023/05/23 12:01:03;;;;;;;20.93;18.83;;;18.50;99.90;;;;;;5033207;28;20221;-74
2023/05/23 12:03:30;;;;;;;19.83;17.70;;;18.50;99.90;;;;;;5022544;28;20258;-73
2023/05/23 12:05:56;;;;;;;18.73;16.80;;;18.50;99.90;;;;;;5033054;28;20695;-73
2023/05/23 12:08:21;;;;;;;20.23;18.10;;;18.50;99.90;;;;;;5025344;28;20211;-74
2023/05/23 12:10:52;;;;;;;20.27;17.87;;;18.50;99.90;;;;;;5022015;28;20238;-74
2023/05/23 12:13:19;;;;;;;21.37;19.17;;;18.40;99.90;;;;;;5028290;28;20213;-74
2023/05/23 12:15:46;;;;;;;20.33;18.23;;;18.50;99.90;;;;;;5015828;28;20198;-74
2023/05/23 12:18:11;;;;;;;20.63;18.47;;;18.70;99.90;;;;;;5019765;28;20284;-74
2023/05/23 12:20:39;;;;;;;18.80;16.90;;;18.70;99.90;;;;;;5017700;28;20218;-73
2023/05/23 12:23:05;;;;;;;21.27;18.87;;;18.70;99.90;;;;;;5018735;28;20676;-73
2023/05/23 12:25:40;;;;;;;19.37;17.37;;;18.70;99.90;;;;;;5022401;28;20257;-73
2023/05/23 12:28:06;;;;;;;18.97;16.67;;;18.60;99.90;;;;;;5019332;28;20210;-73
2023/05/23 12:30:41;;;;;;;18.10;16.27;;;18.60;99.90;;;;;;5019394;28;20706;-72
2023/05/23 12:33:08;;;;;;;19.50;15.50;;;18.80;99.90;;;;;;5017017;28;20226;-72
2023/05/23 12:35:34;;;;;;;16.43;14.83;;;18.70;99.90;;;;;;5019602;28;20214;-73
2023/05/23 12:37:59;;;;;;;17.20;15.40;;;18.70;99.90;;;;;;5024190;28;20685;-73
2023/05/23 12:40:25;;;;;;;14.70;13.17;;;18.70;99.90;;;;;;5024713;28;20635;-74
2023/05/23 12:42:54;;;;;;;15.30;13.70;;;18.70;99.90;;;;;;5021710;28;20620;-73
2023/05/23 12:45:29;;;;;;;15.87;14.27;;;18.90;99.90;;;;;;5028956;28;20233;-73